createdAt,value
2023-03-04T00:01:29.054Z,98278.97
2023-03-04T00:03:58.607Z,98277.03
2023-03-04T00:06:26.716Z,98271.81
2023-03-04T00:08:54.792Z,98270.00
2023-03-04T00:11:22.863Z,98264.91
2023-03-04T00:13:51.028Z,98248.56
2023-03-04T00:16:19.114Z,98266.47
2023-03-04T00:18:47.175Z,98257.97
2023-03-04T00:21:16.617Z,98261.56
2023-03-04T00:23:44.740Z,98245.03
2023-03-04T00:26:13.595Z,98237.13
2023-03-04T00:28:44.347Z,98229.66
2023-03-04T00:31:12.974Z,98219.56
2023-03-04T00:33:43.535Z,98225.47
2023-03-04T00:36:12.405Z,98215.47
2023-03-04T00:38:41.849Z,98205.19
2023-03-04T00:41:09.970Z,98203.31
2023-03-04T00:43:38.104Z,98205.19
2023-03-04T00:46:07.256Z,98215.41
2023-03-04T00:48:35.428Z,98200.13
2023-03-04T00:51:03.480Z,98204.28
2023-03-04T00:53:31.616Z,98192.91
2023-03-04T00:56:01.026Z,98202.97
2023-03-04T00:58:29.270Z,98177.66
2023-03-04T01:00:57.357Z,98181.66
2023-03-04T01:03:26.996Z,98164.88
2023-03-04T01:05:55.095Z,98160.00
2023-03-04T01:08:23.919Z,98153.00
2023-03-04T01:10:54.337Z,98153.47
2023-03-04T01:13:23.811Z,98140.94
2023-03-04T01:15:52.023Z,98141.69
2023-03-04T01:18:20.114Z,98130.88
2023-03-04T01:20:48.290Z,98136.63
2023-03-04T01:23:16.302Z,98137.19
2023-03-04T01:25:44.403Z,98130.34
2023-03-04T01:28:12.490Z,98133.25
2023-03-04T01:30:43.767Z,98108.50
2023-03-04T01:33:11.837Z,98115.06
2023-03-04T01:35:39.925Z,98113.59
2023-03-04T01:38:08.138Z,98127.88
2023-03-04T01:40:36.279Z,98114.34
2023-03-04T01:43:04.467Z,98108.31
2023-03-04T01:45:33.599Z,98104.47
2023-03-04T01:48:03.183Z,98112.94
2023-03-04T01:50:34.379Z,98105.31
2023-03-04T01:53:02.917Z,98098.09
2023-03-04T01:55:32.095Z,98112.56
2023-03-04T01:58:00.376Z,98103.75
2023-03-04T02:00:32.114Z,98102.69
2023-03-04T02:03:07.285Z,98097.75
2023-03-04T02:05:38.115Z,98101.91
2023-03-04T02:08:07.204Z,98096.59
2023-03-04T02:10:35.935Z,98084.03
2023-03-04T02:13:05.360Z,98095.81
2023-03-04T02:15:34.249Z,98090.06
2023-03-04T02:18:06.744Z,98077.63
2023-03-04T02:20:43.775Z,98086.69
2023-03-04T02:23:18.178Z,98081.91
2023-03-04T02:25:51.056Z,98101.28
2023-03-04T02:28:20.908Z,98095.41
2023-03-04T02:30:49.195Z,98080.16
2023-03-04T02:33:19.863Z,98093.44
2023-03-04T02:35:48.189Z,98071.16
2023-03-04T02:38:16.440Z,98074.56
2023-03-04T02:40:49.772Z,98067.44
2023-03-04T02:43:24.034Z,98069.00
2023-03-04T02:45:53.229Z,98065.00
2023-03-04T02:48:24.031Z,98058.78
2023-03-04T02:50:54.098Z,98035.38
2023-03-04T02:53:23.102Z,98045.88
2023-03-04T02:55:51.454Z,98041.56
2023-03-04T02:58:22.136Z,98024.09
2023-03-04T03:00:51.683Z,98013.97
2023-03-04T03:03:19.891Z,98026.94
2023-03-04T03:05:48.406Z,98026.56
2023-03-04T03:08:16.758Z,98036.38
2023-03-04T03:10:44.953Z,98037.25
2023-03-04T03:13:13.260Z,98036.31
2023-03-04T03:15:42.488Z,98034.34
2023-03-04T03:18:12.837Z,98020.66
2023-03-04T03:20:43.458Z,98029.09
2023-03-04T03:23:11.650Z,98018.53
2023-03-04T03:25:39.906Z,98016.75
2023-03-04T03:28:08.073Z,98019.22
2023-03-04T03:30:36.302Z,98018.34
2023-03-04T03:33:07.611Z,98016.44
2023-03-04T03:35:37.319Z,98028.09
2023-03-04T03:38:05.404Z,98037.88
2023-03-04T03:40:33.537Z,98030.22
2023-03-04T03:43:01.625Z,98021.91
2023-03-04T03:45:29.777Z,98023.28
2023-03-04T03:47:57.893Z,98030.53
2023-03-04T03:50:26.052Z,98028.56
2023-03-04T03:52:55.697Z,98016.84
2023-03-04T03:55:23.796Z,98024.91
2023-03-04T03:57:51.887Z,98026.06
2023-03-04T04:00:20.811Z,98040.22
2023-03-04T04:02:48.975Z,98014.81
2023-03-04T04:05:17.252Z,98018.69
2023-03-04T04:07:45.271Z,98008.81
2023-03-04T04:10:14.696Z,98018.06
2023-03-04T04:12:42.828Z,98023.69
2023-03-04T04:15:12.864Z,98008.22
2023-03-04T04:17:41.098Z,98007.28
2023-03-04T04:20:10.625Z,98010.13
2023-03-04T04:22:38.652Z,98012.28
2023-03-04T04:25:10.627Z,98019.72
2023-03-04T04:27:40.133Z,98022.25
2023-03-04T04:30:09.318Z,98011.97
2023-03-04T04:32:37.421Z,98007.13
2023-03-04T04:35:06.217Z,98022.50
2023-03-04T04:37:34.535Z,98018.56
2023-03-04T04:40:02.624Z,98020.63
2023-03-04T04:42:30.887Z,98000.84
2023-03-04T04:45:00.304Z,98004.63
2023-03-04T04:47:28.428Z,98007.72
2023-03-04T04:49:56.512Z,97996.09
2023-03-04T04:52:24.619Z,98014.06
2023-03-04T04:54:52.649Z,97995.53
2023-03-04T04:57:20.883Z,98000.31
2023-03-04T04:59:48.974Z,97988.09
2023-03-04T05:02:18.384Z,97994.22
2023-03-04T05:04:46.460Z,97998.19
2023-03-04T05:07:14.536Z,98003.84
2023-03-04T05:09:42.611Z,97979.66
2023-03-04T05:12:10.714Z,97999.88
2023-03-04T05:14:38.942Z,97977.19
2023-03-04T05:17:07.037Z,97967.34
2023-03-04T05:19:36.442Z,97965.91
2023-03-04T05:22:04.549Z,97970.31
2023-03-04T05:24:32.592Z,97980.50
2023-03-04T05:27:00.691Z,97969.78
2023-03-04T05:29:28.939Z,97986.88
2023-03-04T05:31:57.129Z,97965.59
2023-03-04T05:34:25.171Z,97955.19
2023-03-04T05:36:54.611Z,97950.94
2023-03-04T05:39:22.627Z,97970.78
2023-03-04T05:41:50.667Z,97984.69
2023-03-04T05:44:20.768Z,97957.34
2023-03-04T05:46:49.824Z,97959.41
2023-03-04T05:49:17.856Z,97958.69
2023-03-04T05:51:45.928Z,97962.22
2023-03-04T05:54:16.208Z,97952.44
2023-03-04T05:56:44.363Z,97938.84
2023-03-04T05:59:12.461Z,97957.16
2023-03-04T06:01:40.488Z,97943.13
2023-03-04T06:04:08.577Z,97942.94
2023-03-04T06:06:36.715Z,97942.06
2023-03-04T06:09:04.928Z,97959.41
2023-03-04T06:11:36.325Z,97950.38
2023-03-04T06:14:04.758Z,97948.78
2023-03-04T06:16:33.643Z,97951.25
2023-03-04T06:19:01.712Z,97967.28
2023-03-04T06:21:29.778Z,97968.81
2023-03-04T06:23:57.884Z,97975.81
2023-03-04T06:26:25.922Z,97952.75
2023-03-04T06:28:57.145Z,97962.84
2023-03-04T06:31:25.249Z,97958.94
2023-03-04T06:33:53.413Z,97960.16
2023-03-04T06:36:21.466Z,97954.31
2023-03-04T06:38:49.605Z,97977.38
2023-03-04T06:41:17.668Z,97972.06
2023-03-04T06:43:45.762Z,97955.84
2023-03-04T06:46:15.274Z,97956.75
2023-03-04T06:48:43.359Z,97957.06
2023-03-04T06:51:14.545Z,97947.66
2023-03-04T06:53:43.588Z,97943.13
2023-03-04T06:56:13.693Z,97950.38
2023-03-04T06:58:41.806Z,97957.06
2023-03-04T07:01:16.095Z,97958.50
2023-03-04T07:03:44.849Z,97960.63
2023-03-04T07:06:14.204Z,97948.88
2023-03-04T07:08:42.840Z,97963.41
2023-03-04T07:11:11.415Z,97979.88
2023-03-04T07:13:39.508Z,97949.53
2023-03-04T07:16:08.904Z,97961.47
2023-03-04T07:18:38.644Z,97984.69
2023-03-04T07:21:07.895Z,97974.28
2023-03-04T07:23:36.484Z,98013.72
2023-03-04T07:26:05.009Z,97987.00
2023-03-04T07:28:33.332Z,97984.84
2023-03-04T07:31:10.591Z,97977.63
2023-03-04T07:33:40.056Z,97994.28
2023-03-04T07:36:08.341Z,97992.22
2023-03-04T07:38:36.421Z,98005.03
2023-03-04T07:41:04.683Z,98006.06
2023-03-04T07:43:32.784Z,98011.56
2023-03-04T07:46:02.090Z,98016.75
2023-03-04T07:48:30.294Z,98009.84
2023-03-04T07:51:07.896Z,98008.09
2023-03-04T07:53:36.858Z,98013.72
2023-03-04T07:56:05.797Z,98036.56
2023-03-04T07:58:34.328Z,98023.03
2023-03-04T08:01:02.351Z,98027.59
2023-03-04T08:03:30.824Z,98032.06
2023-03-04T08:05:58.869Z,98028.88
2023-03-04T08:08:28.450Z,98038.44
2023-03-04T08:10:56.615Z,98024.50
2023-03-04T08:13:25.901Z,98035.22
2023-03-04T08:15:56.575Z,98012.19
2023-03-04T08:18:24.928Z,98014.69
2023-03-04T08:20:53.472Z,98026.56
2023-03-04T08:23:21.850Z,98020.94
2023-03-04T08:25:51.415Z,98027.94
2023-03-04T08:28:20.204Z,98020.50
2023-03-04T08:30:54.673Z,98029.41
2023-03-04T08:33:22.826Z,98025.50
2023-03-04T08:35:50.993Z,98018.50
2023-03-04T08:38:19.084Z,98014.25
2023-03-04T08:40:47.214Z,98019.78
2023-03-04T08:43:16.710Z,98009.47
2023-03-04T08:45:44.874Z,98014.09
2023-03-04T08:48:13.174Z,98009.63
2023-03-04T08:50:41.375Z,98019.38
2023-03-04T08:53:09.478Z,98023.53
2023-03-04T08:55:39.665Z,98030.25
2023-03-04T08:58:08.180Z,98015.59
2023-03-04T09:00:42.440Z,98007.97
2023-03-04T09:03:13.227Z,98007.81
2023-03-04T09:05:42.104Z,98036.31
2023-03-04T09:08:10.112Z,98020.75
2023-03-04T09:10:38.317Z,98035.81
2023-03-04T09:13:06.688Z,98049.38
2023-03-04T09:15:36.146Z,98034.28
2023-03-04T09:18:06.861Z,98041.69
2023-03-04T09:20:34.990Z,98017.72
2023-03-04T09:23:03.180Z,98032.00
2023-03-04T09:25:31.300Z,98026.75
2023-03-04T09:27:59.471Z,98044.13
2023-03-04T09:30:29.028Z,98042.91
2023-03-04T09:32:57.524Z,98021.25
2023-03-04T09:35:27.084Z,98012.50
2023-03-04T09:37:55.232Z,98022.22
2023-03-04T09:40:25.678Z,98035.47
2023-03-04T09:42:58.163Z,98061.00
2023-03-04T09:45:30.861Z,98010.03
2023-03-04T09:47:59.868Z,98015.22
2023-03-04T09:50:34.735Z,98020.91
2023-03-04T09:53:14.993Z,98025.59
2023-03-04T09:55:48.184Z,98003.22
2023-03-04T09:58:29.548Z,97989.91
2023-03-04T10:01:05.225Z,97999.19
2023-03-04T10:03:43.095Z,97997.38
2023-03-04T10:06:18.028Z,97988.84
2023-03-04T10:08:53.071Z,97985.66
2023-03-04T10:11:27.170Z,98017.16
2023-03-04T10:14:01.386Z,97997.25
2023-03-04T10:16:36.031Z,98001.56
2023-03-04T10:19:19.149Z,97996.38
2023-03-04T10:21:51.096Z,98040.56
2023-03-04T10:24:22.700Z,97974.88
2023-03-04T10:26:54.653Z,98011.09
2023-03-04T10:29:24.918Z,97984.72
2023-03-04T10:31:56.145Z,98013.63
2023-03-04T10:34:24.875Z,97996.63
2023-03-04T10:37:01.289Z,98005.69
2023-03-04T10:39:31.774Z,98013.66
2023-03-04T10:42:02.548Z,97998.44
2023-03-04T10:44:32.066Z,97977.69
2023-03-04T10:47:00.344Z,98010.41
2023-03-04T10:49:31.049Z,97978.38
2023-03-04T10:52:16.442Z,97999.00
2023-03-04T10:54:50.057Z,97987.97
2023-03-04T10:57:20.676Z,97975.16
2023-03-04T10:59:53.566Z,97966.44
2023-03-04T11:02:27.095Z,97957.28
2023-03-04T11:04:58.101Z,97968.78
2023-03-04T11:07:28.758Z,97955.72
2023-03-04T11:09:58.458Z,97949.91
2023-03-04T11:12:35.144Z,97947.41
2023-03-04T11:15:07.252Z,97953.63
2023-03-04T11:17:45.158Z,97948.19
2023-03-04T11:20:19.353Z,97940.31
2023-03-04T11:22:48.875Z,97945.00
2023-03-04T11:25:28.060Z,97957.69
2023-03-04T11:27:58.803Z,97947.53
2023-03-04T11:30:42.217Z,97938.56
2023-03-04T11:33:17.131Z,97944.22
2023-03-04T11:35:58.292Z,97943.19
2023-03-04T11:38:36.737Z,97934.97
2023-03-04T11:41:13.664Z,97931.28
2023-03-04T11:43:46.255Z,97928.22
2023-03-04T11:46:36.732Z,97919.59
2023-03-04T11:49:22.677Z,97931.09
2023-03-04T11:52:06.816Z,97913.84
2023-03-04T11:54:46.459Z,97899.50
2023-03-04T11:57:26.296Z,97915.56
2023-03-04T12:00:05.142Z,97901.38
2023-03-04T12:02:47.802Z,97903.88
2023-03-04T12:05:25.078Z,97917.47
2023-03-04T12:08:35.685Z,97909.03
2023-03-04T12:11:11.429Z,97953.91
2023-03-04T12:14:02.726Z,97907.78
2023-03-04T12:16:48.476Z,97908.69
2023-03-04T12:19:35.083Z,97914.75
2023-03-04T12:22:25.556Z,97898.56
2023-03-04T12:25:36.223Z,97903.50
2023-03-04T12:28:20.456Z,97915.88
2023-03-04T12:31:00.954Z,97912.94
2023-03-04T12:33:40.087Z,97913.28
2023-03-04T12:36:18.639Z,97911.34
2023-03-04T12:39:01.953Z,97918.72
2023-03-04T12:41:49.669Z,97905.06
2023-03-04T12:44:21.024Z,97904.81
2023-03-04T12:47:11.951Z,97909.03
2023-03-04T12:49:56.766Z,97891.22
2023-03-04T12:52:36.154Z,97913.31
2023-03-04T12:55:09.429Z,97890.13
2023-03-04T12:57:38.824Z,97883.97
2023-03-04T13:00:23.725Z,97883.72
2023-03-04T13:03:10.360Z,97882.44
2023-03-04T13:06:03.941Z,97882.91
2023-03-04T13:08:41.934Z,97878.06
2023-03-04T13:11:42.475Z,97864.41
2023-03-04T13:14:26.393Z,97863.88
2023-03-04T13:16:57.502Z,97878.88
2023-03-04T13:19:47.166Z,97845.25
2023-03-04T13:22:34.704Z,97893.53
2023-03-04T13:25:19.464Z,97862.44
2023-03-04T13:27:50.173Z,97874.28
2023-03-04T13:30:44.884Z,97855.03
2023-03-04T13:33:53.289Z,97864.28
2023-03-04T13:36:34.122Z,97875.78
2023-03-04T13:39:04.020Z,97877.34
2023-03-04T13:41:34.200Z,97869.09
2023-03-04T13:44:03.226Z,97848.91
2023-03-04T13:46:42.843Z,97860.28
2023-03-04T13:49:23.719Z,97858.63
2023-03-04T13:51:52.883Z,97845.69
2023-03-04T13:54:28.834Z,97854.56
2023-03-04T13:57:17.926Z,97856.50
2023-03-04T13:59:48.931Z,97851.44
2023-03-04T14:02:20.082Z,97842.06
2023-03-04T14:04:59.723Z,97832.94
2023-03-04T14:07:29.646Z,97845.94
2023-03-04T14:10:01.990Z,97834.75
2023-03-04T14:12:34.599Z,97853.53
2023-03-04T14:15:05.857Z,97824.75
2023-03-04T14:17:42.801Z,97827.97
2023-03-04T14:20:28.851Z,97842.09
2023-03-04T14:22:57.759Z,97834.88
2023-03-04T14:25:28.018Z,97866.22
2023-03-04T14:28:11.167Z,97844.56
2023-03-04T14:30:43.330Z,97829.97
2023-03-04T14:33:18.887Z,97837.75
2023-03-04T14:35:50.063Z,97848.78
2023-03-04T14:38:24.545Z,97831.63
2023-03-04T14:40:58.405Z,97840.63
2023-03-04T14:43:28.059Z,97841.75
2023-03-04T14:45:59.796Z,97828.19
2023-03-04T14:48:31.991Z,97835.31
2023-03-04T14:51:03.341Z,97824.75
2023-03-04T14:53:32.602Z,97839.13
2023-03-04T14:56:04.563Z,97822.38
2023-03-04T14:58:34.373Z,97829.31
2023-03-04T15:01:16.490Z,97827.66
2023-03-04T15:03:57.497Z,97837.66
2023-03-04T15:06:29.464Z,97804.81
2023-03-04T15:09:01.270Z,97826.38
2023-03-04T15:11:32.858Z,97820.16
2023-03-04T15:14:02.843Z,97822.31
2023-03-04T15:16:55.051Z,97813.59
2023-03-04T15:19:28.415Z,97813.88
2023-03-04T15:22:06.638Z,97829.47
2023-03-04T15:24:35.022Z,97821.19
2023-03-04T15:27:04.279Z,97821.06
2023-03-04T15:29:32.496Z,97824.06
2023-03-04T15:32:01.413Z,97829.84
2023-03-04T15:34:29.717Z,97830.56
2023-03-04T15:37:00.411Z,97837.84
2023-03-04T15:39:30.000Z,97815.47
2023-03-04T15:41:58.366Z,97818.56
2023-03-04T15:44:26.573Z,97818.94
2023-03-04T15:46:54.671Z,97843.06
2023-03-04T15:49:22.843Z,97819.13
2023-03-04T15:51:51.018Z,97822.28
2023-03-04T15:54:19.185Z,97819.03
2023-03-04T15:56:48.673Z,97808.47
2023-03-04T15:59:18.504Z,97805.50
2023-03-04T16:01:46.756Z,97797.69
2023-03-04T16:04:17.257Z,97789.06
2023-03-04T16:06:46.798Z,97790.38
2023-03-04T16:09:17.957Z,97796.94
2023-03-04T16:11:48.559Z,97796.69
2023-03-04T16:14:17.766Z,97809.53
2023-03-04T16:16:47.025Z,97794.94
2023-03-04T16:19:15.368Z,97813.66
2023-03-04T16:21:43.627Z,97796.56
2023-03-04T16:24:17.791Z,97815.34
2023-03-04T16:26:46.059Z,97807.03
2023-03-04T16:29:16.644Z,97801.72
2023-03-04T16:31:45.182Z,97814.75
2023-03-04T16:34:13.321Z,97821.84
2023-03-04T16:36:41.593Z,97837.84
2023-03-04T16:39:18.969Z,97823.34
2023-03-04T16:41:47.220Z,97824.06
2023-03-04T16:44:17.117Z,97828.03
2023-03-04T16:46:45.666Z,97823.59
2023-03-04T16:49:16.289Z,97826.44
2023-03-04T16:51:48.219Z,97834.28
2023-03-04T16:54:26.639Z,97814.88
2023-03-04T16:56:55.752Z,97832.59
2023-03-04T16:59:25.272Z,97838.78
2023-03-04T17:01:54.629Z,97824.56
2023-03-04T17:04:23.702Z,97823.91
2023-03-04T17:06:52.001Z,97808.81
2023-03-04T17:09:20.132Z,97820.19
2023-03-04T17:11:48.693Z,97787.75
2023-03-04T17:14:16.861Z,97816.38
2023-03-04T17:16:46.445Z,97802.16
2023-03-04T17:19:14.632Z,97804.81
2023-03-04T17:21:42.819Z,97811.81
2023-03-04T17:24:11.982Z,97819.72
2023-03-04T17:26:40.760Z,97830.63
2023-03-04T17:29:08.983Z,97826.13
2023-03-04T17:31:38.130Z,97818.53
2023-03-04T17:34:08.466Z,97804.97
2023-03-04T17:36:36.681Z,97798.44
2023-03-04T17:39:05.776Z,97792.56
2023-03-04T17:41:36.127Z,97832.13
2023-03-04T17:44:05.968Z,97783.09
2023-03-04T17:46:34.268Z,97798.34
2023-03-04T17:49:02.474Z,97790.03
2023-03-04T17:51:34.170Z,97798.09
2023-03-04T17:54:02.839Z,97791.16
2023-03-04T17:56:31.501Z,97808.47
2023-03-04T17:59:00.605Z,97802.97
2023-03-04T18:01:29.099Z,97798.28
2023-03-04T18:03:57.529Z,97810.88
2023-03-04T18:06:26.019Z,97806.81
2023-03-04T18:08:56.159Z,97784.28
2023-03-04T19:38:01.536Z,97794.28
2023-03-04T19:40:29.864Z,97805.00
2023-03-04T19:42:58.150Z,97795.41
2023-03-04T19:46:10.154Z,97814.75
2023-03-04T19:48:41.398Z,97816.34
2023-03-04T19:51:15.915Z,97813.78
2023-03-04T19:53:44.085Z,97809.03
2023-03-04T19:56:12.420Z,97823.16
2023-03-04T19:58:40.530Z,97818.53
2023-03-04T20:01:21.264Z,97822.06
2023-03-04T20:03:49.333Z,97817.28
2023-03-04T20:06:17.369Z,97818.38
2023-03-04T20:08:45.431Z,97821.22
2023-03-04T20:11:14.642Z,97811.38
2023-03-04T20:13:42.789Z,97809.88
2023-03-04T20:16:13.377Z,97815.34
2023-03-04T20:18:42.455Z,97823.50
2023-03-04T20:21:11.164Z,97823.16
2023-03-04T20:23:39.379Z,97810.13
2023-03-04T20:26:07.621Z,97835.69
2023-03-04T20:28:49.933Z,97827.97
2023-03-04T20:31:23.161Z,97841.88
2023-03-04T20:33:52.687Z,97846.31
2023-03-04T20:36:22.301Z,97887.38
2023-03-04T20:38:55.851Z,97887.94
2023-03-04T20:41:31.441Z,97885.59
2023-03-04T20:44:00.290Z,97882.94
2023-03-04T20:46:33.494Z,97889.13
2023-03-04T20:49:04.630Z,97880.06
2023-03-04T20:51:33.714Z,97860.31
2023-03-04T20:54:02.076Z,97869.47
2023-03-04T20:56:30.361Z,97862.19
2023-03-04T20:59:01.221Z,97857.81
2023-03-04T21:01:32.086Z,97860.94
2023-03-04T21:04:01.176Z,97868.91
2023-03-04T21:06:29.605Z,97856.72
2023-03-04T21:09:00.691Z,97868.16
2023-03-04T21:11:28.936Z,97866.53
2023-03-04T21:13:57.867Z,97860.13
2023-03-04T21:16:29.688Z,97860.09
2023-03-04T21:19:00.114Z,97871.66
2023-03-04T21:21:29.786Z,97850.38
2023-03-04T21:23:59.596Z,97859.25
2023-03-04T21:26:27.858Z,97858.38
2023-03-04T21:28:55.999Z,97854.75
2023-03-04T21:31:26.246Z,97859.09
2023-03-04T21:33:56.530Z,97850.16
2023-03-04T21:36:26.118Z,97854.09
2023-03-04T21:38:54.378Z,97847.44
2023-03-04T21:41:24.635Z,97848.66
2023-03-04T21:43:53.069Z,97856.50
2023-03-04T21:46:22.837Z,97862.53
2023-03-04T21:48:50.942Z,97853.44
2023-03-04T21:51:19.085Z,97871.19
2023-03-04T21:53:48.539Z,97865.69
2023-03-04T21:56:16.623Z,97856.69
2023-03-04T21:58:45.957Z,97845.69
2023-03-04T22:01:15.434Z,97854.28
2023-03-04T22:03:43.581Z,97848.56
2023-03-04T22:06:13.360Z,97846.66
2023-03-04T22:08:42.495Z,97843.34
2023-03-04T22:11:12.831Z,97843.72
2023-03-04T22:13:41.522Z,97841.84
2023-03-04T22:16:11.024Z,97840.69
2023-03-04T22:18:40.786Z,97846.56
2023-03-04T22:21:10.824Z,97836.13
2023-03-04T22:23:39.197Z,97833.00
2023-03-04T22:26:09.342Z,97821.84
2023-03-04T22:28:39.487Z,97835.13
2023-03-04T22:31:15.555Z,97834.94
2023-03-04T22:33:44.786Z,97837.00
2023-03-04T22:36:13.751Z,97831.34
2023-03-04T22:38:44.591Z,97840.59
2023-03-04T22:41:16.302Z,97829.91
2023-03-04T22:43:46.437Z,97830.22
2023-03-04T22:46:15.740Z,97834.97
2023-03-04T22:48:44.042Z,97839.50
2023-03-04T22:51:12.759Z,97841.25
2023-03-04T22:53:41.264Z,97838.53
2023-03-04T22:56:09.392Z,97838.59
2023-03-04T22:58:37.493Z,97846.09
2023-03-04T23:01:08.004Z,97849.94
2023-03-04T23:03:36.820Z,97840.72
2023-03-04T23:06:08.090Z,97855.44
2023-03-04T23:08:38.045Z,97852.19
2023-03-04T23:11:10.173Z,97860.44
2023-03-04T23:13:38.787Z,97851.19
2023-03-04T23:16:09.990Z,97856.50
2023-03-04T23:18:39.324Z,97858.56
2023-03-04T23:21:08.561Z,97849.97
2023-03-04T23:23:37.397Z,97853.56
2023-03-04T23:26:05.918Z,97855.91
2023-03-04T23:28:33.933Z,97859.50
2023-03-04T23:31:03.314Z,97861.81
2023-03-04T23:33:34.404Z,97858.47
2023-03-04T23:36:02.777Z,97861.06
2023-03-04T23:38:30.875Z,97865.72
2023-03-04T23:40:58.925Z,97865.66
2023-03-04T23:43:29.044Z,97870.47
2023-03-04T23:45:59.088Z,97867.16
2023-03-04T23:48:27.329Z,97870.78
2023-03-04T23:51:00.038Z,97871.31
2023-03-04T23:53:28.844Z,97875.44
2023-03-04T23:55:56.935Z,97872.63
2023-03-04T23:58:25.023Z,97866.75
